Decoded Metar for BKPR (PRISHTINA in SERBIA) (IATA:N/A) | Meteo·Mobile Aviation Weather
aviador You're here:

BKPR Decoded Metar

PRISHTINA in SERBIA
Report Time2019-01-23 07:00:00
UTC Time2019-01-23 06:58:22
Flight Rules mvfr MVFR
WindVRB at 03 kt
Visibility5000 m
Phenomena:Mist
Clouds:Few 012 Hf
Scattered 035 Hf
Broken 200 Hf
Expected CloudBase > 800 ft AGL from Temp-Dew spread
Ceiling20,000 ft
Temp-1°C (ISA -12)
Dew Point-3°C (86% RH)
AAT-4.5°C
QNH1002 hPa
Density Alt850 ft
Elevation1,890 ft
Report Wrong Elevation
Raw Report
METAR BKPR 230700Z VRB03KT 5000 BR FEW012 SCT035 BKN200 M01/M03 Q1002
NOSIG RMK 17290095 =

Extra information for BKPR:More info

Metar Taf Metar & Taf Last 4 Metars F.Rules Stats Wind Profile Meteogram Temp Stats Airport Information Weather charts Add Link Nearby VenuesMetar ALERT Operation Metar Decoded Social comments